Saint Thomas, Missouri
Current Conditions -  °F | °C
As of 2:53 PM on Thursday 27 Nov 2014 (Local Time) from KJEF Reporting Station
Overcast Overcast  
Wind Chill: 31°   Ceiling: 8000
Heat Index: 35°   Visibility: 10mi
Dew Point: 22°   Wind: 5mph
Humidity: 59%   Direction: 280°W
Pressure: 30.47"   Gusts: NA
Location:  38.37°N, 92.22°W
Report Text: KJEF 272053Z 28004KT 10SM OVC080 02/M06 A3047 RMK AO2 SLP311 T00171056 56016 $
Loading
Personal Weather Stations






























Interactive Weather Map New forecast layout! Learn more

10-Day Weather Forecast

Advertisements
Track Severe Weather on mobile